Time;durP1;ratioP1;P1;durP2;ratioP2;P2;SDS_P1;SDS_P2;PMS_P1;PMS_P2;Temp;Humidity;BMP_temperature;BMP_pressure;BME280_temperature;BME280_humidity;BME280_pressure;Samples;Min_cycle;Max_cycle;Signal;HPM_P1;HPM_P2
2022/04/28 00:00:30;;;;;;;23.52;12.50;;;8.70;99.90;;;;;;5054104;28;20170;-69
2022/04/28 00:02:56;;;;;;;42.85;18.25;;;8.80;99.90;;;;;;5052530;28;20185;-69
2022/04/28 00:05:22;;;;;;;39.20;17.20;;;8.80;99.90;;;;;;5052558;28;20213;-69
2022/04/28 00:07:48;;;;;;;36.75;18.33;;;8.80;99.90;;;;;;5052609;28;20241;-69
2022/04/28 00:10:14;;;;;;;17.15;14.90;;;8.90;99.90;;;;;;5052702;28;20181;-69
2022/04/28 00:12:40;;;;;;;34.67;27.58;;;8.70;99.90;;;;;;5053616;28;20171;-68
2022/04/28 00:15:06;;;;;;;23.25;18.45;;;8.80;99.90;;;;;;5053127;28;20189;-67
2022/04/28 00:17:32;;;;;;;20.33;14.80;;;8.80;99.90;;;;;;5052348;28;20206;-67
2022/04/28 00:19:57;;;;;;;11.27;10.07;;;8.80;99.90;;;;;;5051660;28;20265;-67
2022/04/28 00:22:24;;;;;;;15.55;12.80;;;8.80;99.90;;;;;;5052359;28;20209;-67
2022/04/28 00:24:49;;;;;;;9.43;8.43;;;8.60;99.90;;;;;;5052226;28;20182;-67
2022/04/28 00:27:15;;;;;;;8.38;7.53;;;8.70;99.90;;;;;;5052366;28;20546;-67
2022/04/28 00:29:40;;;;;;;8.10;7.38;;;8.70;99.90;;;;;;5053295;28;20188;-67
2022/04/28 00:32:07;;;;;;;8.27;7.07;;;8.80;99.90;;;;;;5052700;28;20171;-69
2022/04/28 00:34:32;;;;;;;8.77;6.40;;;8.80;99.90;;;;;;5052037;28;20174;-68
2022/04/28 00:36:58;;;;;;;6.88;6.10;;;8.80;99.90;;;;;;5052439;28;20198;-68
2022/04/28 00:39:23;;;;;;;7.50;5.95;;;8.80;99.90;;;;;;5052113;28;20206;-69
2022/04/28 00:41:49;;;;;;;6.43;5.80;;;8.70;99.90;;;;;;5052159;28;20206;-69
2022/04/28 00:44:14;;;;;;;8.50;7.30;;;8.60;99.90;;;;;;5053140;28;20248;-69
2022/04/28 00:46:43;;;;;;;7.72;7.03;;;8.50;99.90;;;;;;5051989;28;20316;-67
2022/04/28 00:51:54;;;;;;;6.85;6.20;;;8.50;99.90;;;;;;5053796;28;20304;-67
2022/04/28 00:54:21;;;;;;;8.02;5.85;;;8.50;99.90;;;;;;5053100;28;20175;-69
2022/04/28 00:56:49;;;;;;;7.72;6.82;;;8.50;99.90;;;;;;5052633;28;20198;-69
2022/04/28 00:59:16;;;;;;;6.60;6.00;;;8.40;99.90;;;;;;5051950;28;20174;-69
2022/04/28 01:01:41;;;;;;;6.03;5.53;;;8.40;99.90;;;;;;5051853;28;20555;-69
2022/04/28 01:04:07;;;;;;;6.20;5.60;;;8.30;99.90;;;;;;5053054;28;20170;-67
2022/04/28 01:06:33;;;;;;;6.88;6.20;;;8.20;99.90;;;;;;5052832;28;20200;-67
2022/04/28 01:08:59;;;;;;;7.45;5.75;;;8.10;99.90;;;;;;5051743;28;20673;-67
2022/04/28 01:11:26;;;;;;;6.95;5.53;;;8.00;99.90;;;;;;5051785;28;20206;-67
2022/04/28 01:13:52;;;;;;;7.53;5.53;;;7.90;99.90;;;;;;5051865;28;20202;-69
2022/04/28 01:16:17;;;;;;;6.50;5.90;;;7.90;99.90;;;;;;5053655;28;20221;-67
2022/04/28 01:18:43;;;;;;;7.50;6.47;;;7.90;99.90;;;;;;5052066;28;20206;-69
2022/04/28 01:21:09;;;;;;;12.70;8.70;;;7.90;99.90;;;;;;5051817;28;20221;-69
2022/04/28 01:23:36;;;;;;;7.65;6.15;;;7.90;99.90;;;;;;5053319;28;20265;-69
2022/04/28 01:26:03;;;;;;;6.28;5.68;;;7.80;99.90;;;;;;5051751;28;20178;-69
2022/04/28 01:28:32;;;;;;;6.07;5.32;;;7.80;99.90;;;;;;5052729;28;20206;-69
2022/04/28 01:31:05;;;;;;;21.48;13.75;;;7.80;99.90;;;;;;5053322;28;20202;-69
2022/04/28 01:33:31;;;;;;;52.78;30.25;;;7.70;99.90;;;;;;5055734;28;20228;-69
2022/04/28 01:35:56;;;;;;;57.92;30.88;;;7.80;99.90;;;;;;5055395;28;20178;-69
2022/04/28 01:38:22;;;;;;;63.42;33.22;;;7.80;99.90;;;;;;5055497;28;20305;-69
2022/04/28 01:40:47;;;;;;;64.38;30.98;;;7.80;99.90;;;;;;5056101;28;20194;-69
2022/04/28 01:43:13;;;;;;;57.50;27.45;;;7.80;99.90;;;;;;5055288;28;20186;-69
2022/04/28 01:45:39;;;;;;;45.53;20.85;;;7.70;99.90;;;;;;5055081;28;20182;-69
2022/04/28 01:48:04;;;;;;;36.38;17.98;;;7.70;99.90;;;;;;5054914;28;20205;-70
2022/04/28 01:50:30;;;;;;;44.35;20.52;;;7.60;99.90;;;;;;5056500;28;20170;-70
2022/04/28 01:55:40;;;;;;;20.20;11.35;;;7.50;99.90;;;;;;5056873;28;20169;-70
2022/04/28 01:58:05;;;;;;;19.75;11.25;;;7.30;99.90;;;;;;5054901;28;20193;-69
2022/04/28 02:00:32;;;;;;;11.07;8.13;;;7.20;99.90;;;;;;5056124;28;20174;-70
2022/04/28 02:02:57;;;;;;;12.43;7.93;;;7.10;99.90;;;;;;5054820;28;20189;-70
2022/04/28 02:05:23;;;;;;;13.48;8.70;;;7.10;99.90;;;;;;5054797;28;20178;-70
2022/04/28 02:07:49;;;;;;;14.75;9.70;;;7.20;99.90;;;;;;5056282;28;20210;-69
2022/04/28 02:10:14;;;;;;;28.35;15.15;;;7.10;99.90;;;;;;5054674;28;20197;-70
2022/04/28 02:12:40;;;;;;;32.58;16.30;;;7.10;99.90;;;;;;5055418;28;20174;-70
2022/04/28 02:15:06;;;;;;;30.67;16.73;;;7.10;99.90;;;;;;5056326;28;20174;-68
2022/04/28 02:17:35;;;;;;;18.10;10.63;;;7.10;99.90;;;;;;5054514;28;20583;-68
2022/04/28 02:20:06;;;;;;;14.98;10.18;;;7.10;99.90;;;;;;5054809;28;20186;-67
2022/04/28 02:22:32;;;;;;;17.95;10.63;;;7.10;99.90;;;;;;5055133;28;20190;-68
2022/04/28 02:24:57;;;;;;;13.40;9.45;;;7.00;99.90;;;;;;5056061;28;20236;-69
2022/04/28 02:27:24;;;;;;;13.82;9.20;;;7.10;99.90;;;;;;5055771;28;20224;-68
2022/04/28 02:29:50;;;;;;;13.98;9.35;;;7.00;99.90;;;;;;5054921;28;20175;-69
2022/04/28 02:32:17;;;;;;;12.80;8.23;;;7.00;99.90;;;;;;5055792;28;20206;-68
2022/04/28 02:34:42;;;;;;;9.57;7.38;;;7.00;99.90;;;;;;5054543;28;20185;-67
2022/04/28 02:37:08;;;;;;;10.07;7.18;;;6.90;99.90;;;;;;5054478;28;20202;-67
2022/04/28 02:39:33;;;;;;;19.90;11.52;;;6.80;99.90;;;;;;5055365;28;20588;-67
2022/04/28 02:41:59;;;;;;;14.85;8.88;;;6.80;99.90;;;;;;5054353;28;20274;-67
2022/04/28 02:44:24;;;;;;;9.48;7.85;;;6.70;99.90;;;;;;5053731;28;20178;-67
2022/04/28 02:46:50;;;;;;;7.68;6.18;;;6.70;99.90;;;;;;5054687;28;20627;-68
2022/04/28 02:49:16;;;;;;;7.68;6.03;;;6.70;99.90;;;;;;5055377;28;20191;-69
2022/04/28 02:51:41;;;;;;;6.53;5.50;;;6.70;99.90;;;;;;5053891;28;20200;-69
2022/04/28 02:54:08;;;;;;;6.57;5.97;;;6.50;99.90;;;;;;5055076;28;20181;-69
2022/04/28 02:56:34;;;;;;;6.40;5.80;;;6.40;99.90;;;;;;5053814;28;20174;-69
2022/04/28 02:59:00;;;;;;;6.30;5.50;;;6.30;99.90;;;;;;5054947;28;20182;-70
2022/04/28 03:01:26;;;;;;;6.27;5.67;;;6.30;99.90;;;;;;5054936;28;20182;-70
2022/04/28 03:03:52;;;;;;;6.10;5.60;;;6.30;99.90;;;;;;5054908;28;20183;-70
2022/04/28 03:11:48;;;;;;;5.93;5.43;;;6.20;99.90;;;;;;5055333;28;20173;-70
2022/04/28 03:14:14;;;;;;;6.70;6.10;;;6.20;99.90;;;;;;5054079;28;20182;-68
2022/04/28 03:16:39;;;;;;;6.90;6.23;;;6.10;99.90;;;;;;5053725;28;20178;-68
2022/04/28 03:19:05;;;;;;;8.63;7.73;;;6.20;99.90;;;;;;5053420;28;20182;-68
2022/04/28 03:21:31;;;;;;;12.23;8.97;;;6.10;99.90;;;;;;5054569;28;20207;-68
2022/04/28 03:23:57;;;;;;;16.67;11.80;;;6.10;99.90;;;;;;5053224;28;20182;-68
2022/04/28 03:26:23;;;;;;;15.83;10.87;;;6.10;99.90;;;;;;5053281;28;20308;-68
2022/04/28 03:28:49;;;;;;;18.17;11.33;;;6.20;99.90;;;;;;5053044;28;20719;-67
2022/04/28 03:31:15;;;;;;;18.17;12.10;;;6.20;99.90;;;;;;5054453;28;20182;-68
2022/04/28 03:33:41;;;;;;;18.47;12.57;;;6.20;99.90;;;;;;5054641;28;20185;-68
2022/04/28 03:36:50;;;;;;;21.97;12.90;;;6.10;99.90;;;;;;5054248;28;20180;-67
2022/04/28 03:38:52;;;;;;;21.43;15.30;;;6.10;99.90;;;;;;5054069;28;20179;-67
2022/04/28 03:41:18;;;;;;;25.57;16.90;;;6.10;99.90;;;;;;5052939;28;20547;-67
2022/04/28 03:43:46;;;;;;;43.77;25.20;;;6.00;99.90;;;;;;5052792;28;20182;-67
2022/04/28 03:46:12;;;;;;;40.67;24.73;;;6.10;99.90;;;;;;5052841;28;20183;-69
2022/04/28 03:48:38;;;;;;;29.37;18.40;;;6.00;99.90;;;;;;5053724;28;20210;-69
2022/04/28 03:51:04;;;;;;;25.30;17.73;;;5.90;99.90;;;;;;5053179;28;20618;-69
2022/04/28 03:53:30;;;;;;;26.07;17.53;;;5.80;99.90;;;;;;5052778;28;20200;-69
2022/04/28 03:55:57;;;;;;;26.37;17.03;;;5.80;99.90;;;;;;5053093;28;20231;-69
2022/04/28 03:58:25;;;;;;;20.33;14.07;;;5.80;99.90;;;;;;5053115;28;20198;-69
2022/04/28 04:00:51;;;;;;;94.27;53.20;;;5.70;99.90;;;;;;5053779;28;20257;-69
2022/04/28 04:03:19;;;;;;;25.37;17.03;;;5.50;99.90;;;;;;5052538;28;20214;-69
2022/04/28 04:05:45;;;;;;;15.87;12.77;;;5.50;99.90;;;;;;5053322;28;20182;-69
2022/04/28 04:08:10;;;;;;;13.60;9.47;;;5.50;99.90;;;;;;5052295;28;20201;-69
2022/04/28 04:10:36;;;;;;;21.37;14.67;;;5.50;99.90;;;;;;5052455;28;20174;-69
2022/04/28 04:13:02;;;;;;;12.07;10.80;;;5.40;99.90;;;;;;5053941;28;20178;-70
2022/04/28 04:15:27;;;;;;;97.00;73.50;;;5.50;99.90;;;;;;5052836;28;20182;-69
2022/04/28 04:18:26;;;;;;;29.33;21.87;;;5.30;99.90;;;;;;5052759;28;20225;-69
2022/04/28 04:20:52;;;;;;;13.97;10.50;;;5.50;99.90;;;;;;5058322;28;20692;-69
2022/04/28 04:23:18;;;;;;;10.17;8.43;;;5.50;99.90;;;;;;5062296;28;20221;-69
2022/04/28 04:25:44;;;;;;;10.53;8.93;;;5.60;99.90;;;;;;5061963;28;20185;-69
2022/04/28 04:28:10;;;;;;;9.23;8.33;;;5.50;99.90;;;;;;5062354;28;20645;-69
2022/04/28 04:33:24;;;;;;;9.50;8.60;;;5.60;99.90;;;;;;5043140;28;20214;-69
2022/04/28 04:35:50;;;;;;;8.97;8.07;;;5.60;99.90;;;;;;5052166;28;20178;-69
2022/04/28 04:38:15;;;;;;;8.50;7.67;;;5.70;99.90;;;;;;5051866;28;20206;-69
2022/04/28 04:40:41;;;;;;;7.90;7.17;;;5.70;99.90;;;;;;5052719;28;20236;-69
2022/04/28 04:43:13;;;;;;;9.03;7.70;;;5.80;99.90;;;;;;5054360;28;20307;-70
2022/04/28 04:45:42;;;;;;;9.43;7.87;;;5.90;99.90;;;;;;5052165;28;20178;-71
2022/04/28 04:48:09;;;;;;;9.47;8.57;;;5.90;99.90;;;;;;5052140;28;20306;-69
2022/04/28 04:50:35;;;;;;;9.63;8.67;;;5.90;99.90;;;;;;5051924;28;20178;-69
2022/04/28 04:53:01;;;;;;;9.93;8.20;;;5.90;99.90;;;;;;5053095;28;20184;-69
2022/04/28 04:55:26;;;;;;;16.20;11.03;;;6.00;99.90;;;;;;5053669;28;20253;-69
2022/04/28 04:57:52;;;;;;;14.93;12.37;;;6.10;99.90;;;;;;5052073;28;20297;-69
2022/04/28 05:00:18;;;;;;;13.63;10.03;;;6.30;99.90;;;;;;5052030;28;20213;-69
2022/04/28 05:02:43;;;;;;;9.70;8.80;;;6.30;99.90;;;;;;5052156;28;20221;-69
2022/04/28 05:05:09;;;;;;;10.87;8.60;;;6.40;99.90;;;;;;5052493;28;20232;-69
2022/04/28 05:07:34;;;;;;;11.07;8.60;;;6.50;99.90;;;;;;5055491;28;20221;-69
2022/04/28 05:10:00;;;;;;;9.60;8.60;;;6.60;99.90;;;;;;5056085;28;20175;-69
2022/04/28 05:12:26;;;;;;;10.23;9.03;;;6.70;99.90;;;;;;5056570;28;20620;-69
2022/04/28 05:14:51;;;;;;;9.57;8.67;;;6.70;99.90;;;;;;5055711;28;20182;-69
2022/04/28 05:17:17;;;;;;;9.15;8.30;;;6.70;99.90;;;;;;5056920;28;20202;-69
2022/04/28 05:19:42;;;;;;;9.25;8.27;;;6.90;99.90;;;;;;5056494;28;20181;-69
2022/04/28 05:22:08;;;;;;;17.50;8.20;;;7.10;99.90;;;;;;5056882;28;20193;-69
2022/04/28 05:24:34;;;;;;;11.98;8.88;;;7.20;99.90;;;;;;5055889;28;20218;-69
2022/04/28 05:26:59;;;;;;;9.88;7.90;;;7.30;99.90;;;;;;5055394;28;20225;-69
2022/04/28 05:29:25;;;;;;;16.10;7.78;;;7.50;99.90;;;;;;5056909;28;20174;-69
2022/04/28 05:31:50;;;;;;;16.17;8.68;;;7.70;99.90;;;;;;5055419;28;20178;-69
2022/04/28 05:34:16;;;;;;;14.90;9.00;;;7.80;99.90;;;;;;5056180;28;20220;-69
2022/04/28 05:36:43;;;;;;;16.23;8.20;;;7.80;99.90;;;;;;5057390;28;20174;-69
2022/04/28 05:39:08;;;;;;;8.57;7.78;;;7.90;99.90;;;;;;5055350;28;20182;-69
2022/04/28 05:41:35;;;;;;;9.77;7.60;;;8.00;99.90;;;;;;5056415;28;20182;-69
2022/04/28 05:46:45;;;;;;;8.20;7.40;;;8.20;99.90;;;;;;5057168;28;20211;-69
2022/04/28 05:49:11;;;;;;;8.23;7.43;;;8.30;99.90;;;;;;5056216;28;20202;-69
2022/04/28 05:51:37;;;;;;;8.50;7.55;;;8.40;99.90;;;;;;5055258;28;20174;-69
2022/04/28 05:54:03;;;;;;;8.25;7.20;;;8.60;99.90;;;;;;5055148;28;20178;-69
2022/04/28 05:56:28;;;;;;;8.38;7.57;;;8.60;99.90;;;;;;5054853;28;20185;-68
2022/04/28 05:58:55;;;;;;;8.00;7.20;;;8.70;99.90;;;;;;5054888;28;20212;-69
2022/04/28 06:01:21;;;;;;;8.25;7.45;;;8.70;99.90;;;;;;5055022;28;20251;-69
2022/04/28 06:03:47;;;;;;;8.52;7.70;;;8.80;99.90;;;;;;5055162;28;20182;-69
2022/04/28 06:06:12;;;;;;;12.45;6.95;;;8.90;99.90;;;;;;5055551;28;20586;-69
2022/04/28 06:08:41;;;;;;;7.55;6.93;;;9.00;99.90;;;;;;5054632;28;20206;-69
2022/04/28 06:11:06;;;;;;;8.10;6.90;;;8.90;99.90;;;;;;5055842;28;20179;-69
2022/04/28 06:13:32;;;;;;;7.10;6.50;;;9.10;99.90;;;;;;5055494;28;20181;-69
2022/04/28 06:16:00;;;;;;;7.47;6.80;;;9.20;99.90;;;;;;5054885;28;20185;-69
2022/04/28 06:18:27;;;;;;;7.50;6.80;;;9.40;99.90;;;;;;5053824;28;20269;-69
2022/04/28 06:20:53;;;;;;;9.02;8.13;;;9.60;99.90;;;;;;5055560;28;20171;-69
2022/04/28 06:23:19;;;;;;;9.13;8.32;;;9.90;99.90;;;;;;5055769;28;20174;-69
2022/04/28 06:25:44;;;;;;;10.70;9.30;;;10.10;99.90;;;;;;5054697;28;20229;-69
2022/04/28 06:28:10;;;;;;;9.18;8.27;;;10.30;99.90;;;;;;5055513;28;20206;-68
2022/04/28 06:30:36;;;;;;;8.90;7.63;;;10.60;99.90;;;;;;5055485;28;20644;-68
2022/04/28 06:33:02;;;;;;;8.40;7.57;;;10.70;99.90;;;;;;5054549;28;20236;-68
2022/04/28 06:35:27;;;;;;;7.75;6.80;;;10.70;99.90;;;;;;5054403;28;20637;-68
2022/04/28 06:37:53;;;;;;;10.00;7.22;;;10.90;99.90;;;;;;5054693;28;20221;-69
2022/04/28 06:40:19;;;;;;;7.85;7.15;;;10.80;99.90;;;;;;5054161;28;20227;-69
2022/04/28 06:42:45;;;;;;;8.55;7.75;;;10.70;99.90;;;;;;5054818;28;20236;-69
2022/04/28 06:45:12;;;;;;;8.15;7.47;;;10.60;99.90;;;;;;5054267;28;20175;-69
2022/04/28 06:47:38;;;;;;;8.55;7.78;;;10.60;99.90;;;;;;5053955;28;20206;-69
2022/04/28 06:50:04;;;;;;;7.80;7.10;;;10.80;99.90;;;;;;5055316;28;20223;-69
2022/04/28 06:52:30;;;;;;;7.88;7.18;;;11.00;99.90;;;;;;5053978;28;20178;-69
2022/04/28 06:54:56;;;;;;;7.38;6.78;;;11.30;99.90;;;;;;5054039;28;20169;-69
2022/04/28 06:57:21;;;;;;;7.68;6.97;;;11.30;99.90;;;;;;5054189;28;20343;-69
2022/04/28 06:59:47;;;;;;;8.20;7.50;;;11.40;99.90;;;;;;5054727;28;20637;-69
2022/04/28 07:02:12;;;;;;;7.82;7.18;;;11.50;99.90;;;;;;5054088;28;20174;-69
2022/04/28 07:04:38;;;;;;;7.90;7.20;;;11.90;99.90;;;;;;5055029;28;20178;-69
2022/04/28 07:07:04;;;;;;;7.97;7.38;;;12.40;99.90;;;;;;5054491;28;20230;-69
2022/04/28 07:09:29;;;;;;;7.90;7.13;;;12.70;99.60;;;;;;5053538;28;20205;-69
2022/04/28 07:11:55;;;;;;;8.23;7.53;;;13.00;98.50;;;;;;5053674;28;20667;-69
2022/04/28 07:14:20;;;;;;;8.10;7.40;;;13.00;97.20;;;;;;5054036;28;20208;-69
2022/04/28 07:16:46;;;;;;;11.07;7.47;;;13.10;96.70;;;;;;5054124;28;20265;-69
2022/04/28 07:19:12;;;;;;;9.07;7.40;;;13.20;97.90;;;;;;5053730;28;20630;-69
2022/04/28 07:21:37;;;;;;;8.13;7.43;;;13.10;98.80;;;;;;5053405;28;20280;-68
2022/04/28 07:24:03;;;;;;;7.32;6.82;;;13.00;98.30;;;;;;5053367;28;20186;-69
2022/04/28 07:26:29;;;;;;;8.20;7.47;;;12.90;99.10;;;;;;5053144;28;20714;-69
2022/04/28 07:28:54;;;;;;;7.85;7.15;;;12.90;97.20;;;;;;5054085;28;20210;-69
2022/04/28 07:31:20;;;;;;;8.15;7.45;;;12.80;96.90;;;;;;5053125;28;20261;-69
2022/04/28 07:33:46;;;;;;;7.95;7.35;;;12.90;97.30;;;;;;5054582;28;20167;-69
2022/04/28 07:36:14;;;;;;;8.80;7.93;;;12.80;98.00;;;;;;5053348;28;20178;-69
2022/04/28 07:38:41;;;;;;;8.05;7.35;;;12.80;99.90;;;;;;5054269;28;20198;-70
2022/04/28 07:41:07;;;;;;;7.85;7.05;;;13.10;99.90;;;;;;5053338;28;20178;-71
2022/04/28 07:43:32;;;;;;;9.68;7.72;;;13.50;99.20;;;;;;5052888;28;20189;-70
2022/04/28 07:45:58;;;;;;;13.43;7.68;;;13.70;98.10;;;;;;5053732;28;20185;-70
2022/04/28 07:48:24;;;;;;;10.77;8.07;;;14.10;97.60;;;;;;5052654;28;20279;-69
2022/04/28 07:50:50;;;;;;;10.88;7.65;;;14.80;95.30;;;;;;5052786;28;20182;-69
2022/04/28 07:53:16;;;;;;;11.38;9.57;;;14.90;93.30;;;;;;5053650;28;20575;-69
2022/04/28 07:55:41;;;;;;;9.23;8.27;;;15.30;92.50;;;;;;5052684;28;20174;-69
2022/04/28 07:58:07;;;;;;;9.82;7.80;;;15.50;91.70;;;;;;5052601;28;20231;-69
2022/04/28 08:00:33;;;;;;;9.68;7.82;;;15.70;90.50;;;;;;5053462;28;20660;-70
2022/04/28 08:02:59;;;;;;;7.78;7.07;;;15.90;89.00;;;;;;5052872;28;20206;-70
2022/04/28 08:05:25;;;;;;;7.93;7.32;;;16.10;88.90;;;;;;5052548;28;20182;-70
2022/04/28 08:07:51;;;;;;;9.00;7.80;;;16.00;87.30;;;;;;5053888;28;20212;-70
2022/04/28 08:10:16;;;;;;;10.05;7.85;;;15.60;88.30;;;;;;5052514;28;20620;-70
2022/04/28 08:12:42;;;;;;;9.73;7.65;;;15.20;90.20;;;;;;5053315;28;20181;-70
2022/04/28 08:15:08;;;;;;;8.85;7.95;;;15.30;90.00;;;;;;5052491;28;20557;-70
2022/04/28 08:17:34;;;;;;;10.05;7.68;;;15.20;90.00;;;;;;5052376;28;20197;-70
2022/04/28 08:19:59;;;;;;;9.93;7.63;;;15.50;88.80;;;;;;5052374;28;20190;-70
2022/04/28 08:22:25;;;;;;;9.05;8.00;;;15.50;86.30;;;;;;5052227;28;20198;-70
2022/04/28 08:24:50;;;;;;;9.07;8.18;;;15.30;85.80;;;;;;5052600;28;20188;-70
2022/04/28 08:27:16;;;;;;;9.10;8.00;;;15.20;84.30;;;;;;5052134;28;20742;-69
2022/04/28 08:29:42;;;;;;;10.45;8.02;;;15.40;84.70;;;;;;5052211;28;20178;-69
2022/04/28 08:32:07;;;;;;;8.65;7.95;;;15.60;84.30;;;;;;5052153;28;20277;-69
2022/04/28 08:34:33;;;;;;;8.23;7.45;;;15.60;84.10;;;;;;5052128;28;20189;-70
2022/04/28 08:36:59;;;;;;;8.88;8.05;;;15.90;83.40;;;;;;5052063;28;20252;-70
2022/04/28 08:39:25;;;;;;;8.93;8.05;;;16.10;82.60;;;;;;5052635;28;20182;-70
2022/04/28 08:41:50;;;;;;;9.25;7.65;;;16.30;81.20;;;;;;5051593;28;20182;-70
2022/04/28 08:44:18;;;;;;;8.13;7.43;;;16.50;80.30;;;;;;5053883;28;20177;-70
2022/04/28 08:46:51;;;;;;;10.90;7.70;;;16.80;79.50;;;;;;5052261;28;20204;-69
2022/04/28 08:49:19;;;;;;;8.48;7.55;;;17.00;79.70;;;;;;5052771;28;20236;-70
2022/04/28 08:51:44;;;;;;;7.43;6.72;;;17.10;79.50;;;;;;5053164;28;20495;-70
2022/04/28 08:54:12;;;;;;;7.80;6.93;;;17.20;78.30;;;;;;5053148;28;20174;-70
2022/04/28 08:56:39;;;;;;;8.23;7.43;;;17.20;74.90;;;;;;5053072;28;20633;-70
2022/04/28 08:59:05;;;;;;;9.23;7.13;;;17.10;75.50;;;;;;5051935;28;20243;-70
2022/04/28 09:01:32;;;;;;;8.85;6.85;;;16.70;73.90;;;;;;5052771;28;20178;-70
2022/04/28 09:04:00;;;;;;;7.93;7.03;;;16.60;71.10;;;;;;5052731;28;20541;-70
2022/04/28 09:06:34;;;;;;;7.53;6.82;;;16.60;70.20;;;;;;5051838;28;20177;-69
2022/04/28 09:09:02;;;;;;;8.10;7.03;;;16.70;71.30;;;;;;5051840;28;20202;-70
2022/04/28 09:11:29;;;;;;;11.13;7.35;;;16.80;72.60;;;;;;5051734;28;20190;-70
2022/04/28 09:14:14;;;;;;;7.95;7.35;;;16.70;68.70;;;;;;5052941;28;20193;-70
2022/04/28 09:16:52;;;;;;;8.40;7.25;;;16.60;70.00;;;;;;5053268;28;20162;-70
2022/04/28 09:19:34;;;;;;;8.88;7.70;;;16.40;69.30;;;;;;5051728;28;20178;-70
2022/04/28 09:22:01;;;;;;;9.93;7.20;;;16.50;71.70;;;;;;5052002;28;20574;-70
2022/04/28 09:24:28;;;;;;;11.15;8.82;;;16.30;70.30;;;;;;5052000;28;20185;-70
2022/04/28 09:26:55;;;;;;;9.95;7.30;;;16.30;71.40;;;;;;5052502;28;20233;-70
2022/04/28 09:29:22;;;;;;;7.55;6.85;;;16.50;71.80;;;;;;5051501;28;20213;-70
2022/04/28 09:31:50;;;;;;;7.85;7.15;;;16.50;72.70;;;;;;5051644;28;20175;-70
2022/04/28 09:34:18;;;;;;;8.10;7.10;;;16.60;69.60;;;;;;5051900;28;20181;-70
2022/04/28 09:36:45;;;;;;;10.55;6.45;;;16.60;70.70;;;;;;5051453;28;20170;-70
2022/04/28 09:44:50;;;;;;;8.95;6.03;;;16.60;66.00;;;;;;5053081;28;20174;-70
2022/04/28 09:47:18;;;;;;;8.57;6.38;;;16.70;66.20;;;;;;5052197;28;20332;-70
2022/04/28 09:49:52;;;;;;;6.60;5.95;;;16.90;65.40;;;;;;5052705;28;20162;-70
2022/04/28 09:52:21;;;;;;;7.55;5.75;;;16.80;63.40;;;;;;5052329;28;20524;-70
2022/04/28 09:54:47;;;;;;;6.25;5.75;;;16.90;60.90;;;;;;5054786;28;20179;-71
2022/04/28 09:57:15;;;;;;;11.38;6.32;;;16.90;62.10;;;;;;5055213;28;20190;-70
2022/04/28 09:59:42;;;;;;;9.00;5.60;;;17.10;63.80;;;;;;5056159;28;20178;-71
2022/04/28 10:02:15;;;;;;;7.78;5.32;;;17.20;63.00;;;;;;5054861;28;20519;-71
2022/04/28 10:04:42;;;;;;;5.10;4.68;;;17.30;60.00;;;;;;5056344;28;20522;-71
2022/04/28 10:07:09;;;;;;;5.35;4.82;;;17.50;56.90;;;;;;5054979;28;20222;-71
2022/04/28 10:09:38;;;;;;;5.38;4.85;;;17.70;56.10;;;;;;5055596;28;20200;-70
2022/04/28 10:12:06;;;;;;;5.97;5.38;;;17.70;55.40;;;;;;5055019;28;20185;-70
2022/04/28 10:14:37;;;;;;;8.38;5.57;;;17.60;53.60;;;;;;5055281;28;20226;-71
2022/04/28 10:17:04;;;;;;;6.60;4.75;;;17.50;55.70;;;;;;5054677;28;20209;-71
2022/04/28 10:19:34;;;;;;;6.75;4.40;;;17.70;54.80;;;;;;5055090;28;20304;-71
2022/04/28 10:22:06;;;;;;;5.20;4.70;;;17.90;53.20;;;;;;5054984;28;20197;-71
2022/04/28 10:33:03;;;;;;;5.32;4.82;;;18.20;53.20;;;;;;5056090;28;20165;-70
2022/04/28 10:36:04;;;;;;;4.75;4.35;;;18.20;51.20;;;;;;5054303;28;20265;-70
2022/04/28 10:38:38;;;;;;;4.57;3.75;;;18.50;52.30;;;;;;4997204;28;20195;-71
2022/04/28 10:41:07;;;;;;;5.28;3.78;;;18.50;49.80;;;;;;5048538;28;20189;-71
2022/04/28 10:43:32;;;;;;;5.30;3.78;;;18.80;49.90;;;;;;5055373;28;20174;-71
2022/04/28 10:46:07;;;;;;;3.60;3.30;;;19.00;50.00;;;;;;5054117;28;20672;-71
2022/04/28 10:48:35;;;;;;;5.43;3.45;;;19.30;46.50;;;;;;5055099;28;20204;-70
2022/04/28 10:51:29;;;;;;;7.35;3.90;;;19.60;45.80;;;;;;5054863;28;20174;-71
2022/04/28 10:54:05;;;;;;;4.40;3.90;;;19.60;45.20;;;;;;5046977;28;20210;-71
2022/04/28 10:56:40;;;;;;;6.10;3.83;;;19.80;45.40;;;;;;5053905;28;20170;-72
2022/04/28 10:59:29;;;;;;;4.30;3.90;;;20.00;45.10;;;;;;5055645;28;20691;-71
2022/04/28 11:01:55;;;;;;;4.50;4.10;;;20.20;43.10;;;;;;5053719;28;20181;-71
2022/04/28 11:04:22;;;;;;;3.95;3.35;;;19.90;43.00;;;;;;5053205;28;20178;-71
2022/04/28 11:06:54;;;;;;;5.75;3.75;;;19.60;43.10;;;;;;5054787;28;20202;-70
2022/04/28 11:09:34;;;;;;;6.65;3.65;;;19.40;44.60;;;;;;5053542;28;20579;-71
2022/04/28 11:12:20;;;;;;;4.68;4.15;;;19.60;46.40;;;;;;5053587;28;20201;-71
2022/04/28 11:14:52;;;;;;;4.10;3.70;;;19.50;43.50;;;;;;5054441;28;20174;-71
2022/04/28 11:17:22;;;;;;;4.50;3.40;;;19.30;43.80;;;;;;5053409;28;20275;-70
2022/04/28 11:19:50;;;;;;;4.25;3.67;;;19.20;44.10;;;;;;5053431;28;20313;-70
2022/04/28 11:22:16;;;;;;;4.00;3.60;;;18.80;44.80;;;;;;5053261;28;20205;-70
2022/04/28 11:24:45;;;;;;;5.20;3.60;;;18.60;46.70;;;;;;5054452;28;20170;-70
2022/04/28 11:27:18;;;;;;;6.07;3.30;;;18.50;47.30;;;;;;5053427;28;20677;-70
2022/04/28 11:29:44;;;;;;;4.93;3.58;;;18.50;48.60;;;;;;5054487;28;20551;-70
2022/04/28 11:32:11;;;;;;;6.10;3.85;;;18.60;47.70;;;;;;5053422;28;20633;-70
2022/04/28 11:34:37;;;;;;;6.60;3.55;;;18.60;46.60;;;;;;5053117;28;20570;-70
2022/04/28 11:37:17;;;;;;;5.57;3.80;;;18.90;46.60;;;;;;5053009;28;20202;-70
2022/04/28 11:39:47;;;;;;;5.30;4.20;;;19.20;47.00;;;;;;5053043;28;20316;-70
2022/04/28 11:42:16;;;;;;;4.68;4.20;;;19.60;47.10;;;;;;5053871;28;20260;-71
2022/04/28 11:44:52;;;;;;;4.45;3.90;;;19.70;44.60;;;;;;5053768;28;20189;-70
2022/04/28 11:47:19;;;;;;;4.35;3.95;;;19.50;45.20;;;;;;5052726;28;20190;-70
2022/04/28 11:49:45;;;;;;;3.92;3.63;;;19.40;44.60;;;;;;5052855;28;20178;-71
2022/04/28 11:52:34;;;;;;;4.90;3.70;;;19.40;45.60;;;;;;5053302;28;20186;-71
2022/04/28 11:55:08;;;;;;;5.60;3.67;;;19.70;44.60;;;;;;5053639;28;20174;-71
2022/04/28 11:57:39;;;;;;;4.50;3.63;;;19.70;46.50;;;;;;5053293;28;20323;-70
2022/04/28 12:00:12;;;;;;;4.18;3.42;;;19.80;43.70;;;;;;5053623;28;20174;-70
2022/04/28 12:02:39;;;;;;;3.97;3.42;;;20.10;43.40;;;;;;5053254;28;20197;-70
2022/04/28 12:05:19;;;;;;;4.15;3.75;;;20.10;42.60;;;;;;5052760;28;20659;-68
2022/04/28 12:07:53;;;;;;;6.38;3.70;;;19.80;43.40;;;;;;5053103;28;20230;-68
2022/04/28 12:16:17;;;;;;;4.30;3.90;;;19.30;45.20;;;;;;5031042;28;20189;-69
2022/04/28 12:21:37;;;;;;;4.05;3.35;;;19.30;44.20;;;;;;5053697;28;20238;-69
2022/04/28 12:24:19;;;;;;;3.25;3.00;;;19.40;44.80;;;;;;5053492;28;20169;-69
2022/04/28 12:26:46;;;;;;;5.57;3.67;;;19.40;45.50;;;;;;5053076;28;20174;-69
2022/04/28 12:29:16;;;;;;;9.18;3.72;;;19.30;44.20;;;;;;5053642;28;20209;-70
2022/04/28 12:31:43;;;;;;;7.32;3.70;;;19.20;45.50;;;;;;5052271;28;20559;-70
2022/04/28 12:34:23;;;;;;;7.10;4.20;;;19.20;48.30;;;;;;5053318;28;20243;-70
2022/04/28 12:36:53;;;;;;;5.78;3.78;;;19.20;46.70;;;;;;5052105;28;20193;-70
2022/04/28 12:39:20;;;;;;;8.35;4.05;;;19.20;46.30;;;;;;5052223;28;20644;-70
2022/04/28 12:41:46;;;;;;;3.65;3.35;;;19.30;47.00;;;;;;5053422;28;20663;-70
2022/04/28 12:44:12;;;;;;;5.65;3.80;;;19.40;46.20;;;;;;5052159;28;20217;-70
2022/04/28 12:46:39;;;;;;;4.90;3.67;;;19.30;46.20;;;;;;5053280;28;20170;-70
2022/04/28 12:49:07;;;;;;;3.92;3.60;;;19.40;47.10;;;;;;5053287;28;20202;-70
2022/04/28 12:51:45;;;;;;;3.72;3.40;;;19.50;44.70;;;;;;5051983;28;20734;-70
2022/04/28 12:54:24;;;;;;;5.07;3.80;;;19.60;45.20;;;;;;5052869;28;20181;-70
2022/04/28 12:56:57;;;;;;;3.67;3.38;;;19.90;45.90;;;;;;5052718;28;20243;-70
2022/04/28 12:59:27;;;;;;;3.85;3.40;;;20.00;45.20;;;;;;5053183;28;20166;-70
2022/04/28 13:01:53;;;;;;;3.88;3.40;;;20.10;43.80;;;;;;5053122;28;20629;-70
2022/04/28 13:04:24;;;;;;;3.40;3.10;;;20.30;45.80;;;;;;5052273;28;20193;-70
2022/04/28 13:06:51;;;;;;;5.70;3.45;;;20.40;44.00;;;;;;5051909;28;20202;-70
2022/04/28 13:09:17;;;;;;;4.60;4.07;;;20.60;44.80;;;;;;5052322;28;20301;-70
